Barbers Point N A S, Hawaii
Current Conditions -  °F | °C
As of 8:17 PM on Wednesday 28 Jan 2015 (Local Time) from PHJR Reporting Station
Broken Clouds Broken Clouds  
Wind Chill: 72°   Ceiling: 2400
Heat Index: 72°   Visibility: 10mi
Dew Point: 64°   Wind: 0mph
Humidity: 78%   Direction: NA
Pressure: 29.95"   Gusts: NA
Location:  21.319°N, 158.0749°W
Report Text: PHJR 290617Z 00000KT 10SM BKN024 22/18 A2995 RMK AO2
Loading
Personal Weather Stations






























Interactive Weather Map New forecast layout! Learn more

10-Day Weather Forecast

Advertisements
Track Severe Weather on mobile